sensor_id;sensor_type;location;lat;lon;timestamp;P1;durP1;ratioP1;P2;durP2;ratioP2
1829;SDS011;914;48.118;11.600;2022-11-18T00:03:39;1.37;;;1.00;;
1829;SDS011;914;48.118;11.600;2022-11-18T00:06:05;1.47;;;1.37;;
1829;SDS011;914;48.118;11.600;2022-11-18T00:08:34;1.33;;;1.17;;
1829;SDS011;914;48.118;11.600;2022-11-18T00:11:06;0.97;;;0.87;;
1829;SDS011;914;48.118;11.600;2022-11-18T00:13:33;1.17;;;0.90;;
1829;SDS011;914;48.118;11.600;2022-11-18T00:16:19;1.20;;;1.10;;
1829;SDS011;914;48.118;11.600;2022-11-18T00:18:45;0.97;;;0.93;;
1829;SDS011;914;48.118;11.600;2022-11-18T00:21:11;1.60;;;1.07;;
1829;SDS011;914;48.118;11.600;2022-11-18T00:23:37;1.87;;;1.20;;
1829;SDS011;914;48.118;11.600;2022-11-18T00:28:32;1.37;;;0.80;;
1829;SDS011;914;48.118;11.600;2022-11-18T00:31:08;0.83;;;0.83;;
1829;SDS011;914;48.118;11.600;2022-11-18T00:33:35;1.10;;;1.00;;
1829;SDS011;914;48.118;11.600;2022-11-18T00:36:02;0.77;;;0.77;;
1829;SDS011;914;48.118;11.600;2022-11-18T00:38:29;1.80;;;1.03;;
1829;SDS011;914;48.118;11.600;2022-11-18T00:41:05;1.50;;;1.20;;
1829;SDS011;914;48.118;11.600;2022-11-18T00:43:33;0.97;;;0.90;;
1829;SDS011;914;48.118;11.600;2022-11-18T00:45:59;1.70;;;1.20;;
1829;SDS011;914;48.118;11.600;2022-11-18T00:48:25;4.70;;;1.10;;
1829;SDS011;914;48.118;11.600;2022-11-18T00:50:52;1.77;;;0.70;;
1829;SDS011;914;48.118;11.600;2022-11-18T00:53:20;1.10;;;1.00;;
1829;SDS011;914;48.118;11.600;2022-11-18T00:55:47;0.80;;;0.80;;
1829;SDS011;914;48.118;11.600;2022-11-18T00:58:13;1.17;;;0.90;;
1829;SDS011;914;48.118;11.600;2022-11-18T01:00:46;1.67;;;0.90;;
1829;SDS011;914;48.118;11.600;2022-11-18T01:03:14;1.00;;;0.90;;
1829;SDS011;914;48.118;11.600;2022-11-18T01:05:40;0.70;;;0.70;;
1829;SDS011;914;48.118;11.600;2022-11-18T01:08:06;1.20;;;0.80;;
1829;SDS011;914;48.118;11.600;2022-11-18T01:10:33;1.10;;;0.70;;
1829;SDS011;914;48.118;11.600;2022-11-18T01:13:01;0.90;;;0.80;;
1829;SDS011;914;48.118;11.600;2022-11-18T01:15:53;0.87;;;0.87;;
1829;SDS011;914;48.118;11.600;2022-11-18T01:18:24;1.70;;;0.70;;
1829;SDS011;914;48.118;11.600;2022-11-18T01:20:51;1.03;;;0.90;;
1829;SDS011;914;48.118;11.600;2022-11-18T01:23:17;1.00;;;0.97;;
1829;SDS011;914;48.118;11.600;2022-11-18T01:25:44;2.73;;;0.90;;
1829;SDS011;914;48.118;11.600;2022-11-18T01:28:12;0.73;;;0.73;;
1829;SDS011;914;48.118;11.600;2022-11-18T01:30:39;0.80;;;0.80;;
1829;SDS011;914;48.118;11.600;2022-11-18T01:33:06;1.10;;;1.00;;
1829;SDS011;914;48.118;11.600;2022-11-18T01:35:35;0.90;;;0.80;;
1829;SDS011;914;48.118;11.600;2022-11-18T01:38:06;0.93;;;0.90;;
1829;SDS011;914;48.118;11.600;2022-11-18T01:40:32;0.83;;;0.73;;
1829;SDS011;914;48.118;11.600;2022-11-18T01:42:59;0.90;;;0.90;;
1829;SDS011;914;48.118;11.600;2022-11-18T01:45:38;0.73;;;0.73;;
1829;SDS011;914;48.118;11.600;2022-11-18T01:50:31;0.80;;;0.80;;
1829;SDS011;914;48.118;11.600;2022-11-18T01:53:08;1.10;;;0.90;;
1829;SDS011;914;48.118;11.600;2022-11-18T01:55:39;0.90;;;0.90;;
1829;SDS011;914;48.118;11.600;2022-11-18T01:58:29;1.40;;;0.97;;
1829;SDS011;914;48.118;11.600;2022-11-18T02:00:57;0.97;;;0.97;;
1829;SDS011;914;48.118;11.600;2022-11-18T02:03:23;3.37;;;1.00;;
1829;SDS011;914;48.118;11.600;2022-11-18T02:05:51;0.90;;;0.90;;
1829;SDS011;914;48.118;11.600;2022-11-18T02:08:18;1.23;;;1.10;;
1829;SDS011;914;48.118;11.600;2022-11-18T02:10:46;2.17;;;1.20;;
1829;SDS011;914;48.118;11.600;2022-11-18T02:13:11;1.20;;;1.10;;
1829;SDS011;914;48.118;11.600;2022-11-18T02:18:42;1.53;;;1.30;;
1829;SDS011;914;48.118;11.600;2022-11-18T02:21:36;1.50;;;1.40;;
1829;SDS011;914;48.118;11.600;2022-11-18T02:24:13;1.10;;;1.00;;
1829;SDS011;914;48.118;11.600;2022-11-18T02:32:23;2.50;;;1.50;;
1829;SDS011;914;48.118;11.600;2022-11-18T02:40:52;1.47;;;1.37;;
1829;SDS011;914;48.118;11.600;2022-11-18T02:43:15;1.63;;;1.20;;
1829;SDS011;914;48.118;11.600;2022-11-18T02:45:55;1.67;;;1.57;;
1829;SDS011;914;48.118;11.600;2022-11-18T02:48:25;2.70;;;1.40;;
1829;SDS011;914;48.118;11.600;2022-11-18T02:50:54;1.50;;;1.40;;
1829;SDS011;914;48.118;11.600;2022-11-18T02:53:22;2.60;;;1.70;;
1829;SDS011;914;48.118;11.600;2022-11-18T02:55:49;1.50;;;1.33;;
1829;SDS011;914;48.118;11.600;2022-11-18T02:58:17;1.63;;;1.50;;
1829;SDS011;914;48.118;11.600;2022-11-18T03:00:51;3.40;;;1.50;;
1829;SDS011;914;48.118;11.600;2022-11-18T03:03:25;1.43;;;1.30;;
1829;SDS011;914;48.118;11.600;2022-11-18T03:08:34;1.97;;;1.30;;
1829;SDS011;914;48.118;11.600;2022-11-18T03:11:20;1.63;;;1.00;;
1829;SDS011;914;48.118;11.600;2022-11-18T03:13:56;1.47;;;1.00;;
1829;SDS011;914;48.118;11.600;2022-11-18T03:16:28;1.07;;;0.93;;
1829;SDS011;914;48.118;11.600;2022-11-18T03:19:06;0.60;;;0.60;;
1829;SDS011;914;48.118;11.600;2022-11-18T03:21:51;0.80;;;0.80;;
1829;SDS011;914;48.118;11.600;2022-11-18T03:27:33;1.63;;;0.70;;
1829;SDS011;914;48.118;11.600;2022-11-18T03:30:05;0.60;;;0.60;;
1829;SDS011;914;48.118;11.600;2022-11-18T03:32:35;1.33;;;0.80;;
1829;SDS011;914;48.118;11.600;2022-11-18T03:35:06;0.63;;;0.63;;
1829;SDS011;914;48.118;11.600;2022-11-18T03:37:36;2.93;;;0.70;;
1829;SDS011;914;48.118;11.600;2022-11-18T03:40:26;1.30;;;0.67;;
1829;SDS011;914;48.118;11.600;2022-11-18T03:43:13;1.27;;;0.80;;
1829;SDS011;914;48.118;11.600;2022-11-18T03:45:44;0.70;;;0.70;;
1829;SDS011;914;48.118;11.600;2022-11-18T03:48:30;0.60;;;0.60;;
1829;SDS011;914;48.118;11.600;2022-11-18T03:51:01;1.03;;;0.80;;
1829;SDS011;914;48.118;11.600;2022-11-18T03:53:33;1.70;;;0.80;;
1829;SDS011;914;48.118;11.600;2022-11-18T03:56:07;1.17;;;0.73;;
1829;SDS011;914;48.118;11.600;2022-11-18T03:58:48;0.63;;;0.60;;
1829;SDS011;914;48.118;11.600;2022-11-18T04:01:32;1.17;;;0.67;;
1829;SDS011;914;48.118;11.600;2022-11-18T04:04:05;0.73;;;0.60;;
1829;SDS011;914;48.118;11.600;2022-11-18T04:06:39;0.50;;;0.50;;
1829;SDS011;914;48.118;11.600;2022-11-18T04:09:23;2.20;;;0.53;;
1829;SDS011;914;48.118;11.600;2022-11-18T04:11:54;0.67;;;0.63;;
1829;SDS011;914;48.118;11.600;2022-11-18T04:14:30;0.60;;;0.60;;
1829;SDS011;914;48.118;11.600;2022-11-18T04:17:09;0.50;;;0.50;;
1829;SDS011;914;48.118;11.600;2022-11-18T04:19:36;0.57;;;0.43;;
1829;SDS011;914;48.118;11.600;2022-11-18T04:22:02;0.40;;;0.40;;
1829;SDS011;914;48.118;11.600;2022-11-18T04:24:28;1.00;;;0.47;;
1829;SDS011;914;48.118;11.600;2022-11-18T04:26:54;2.77;;;0.60;;
1829;SDS011;914;48.118;11.600;2022-11-18T04:29:19;1.37;;;0.60;;
1829;SDS011;914;48.118;11.600;2022-11-18T04:31:45;1.23;;;0.50;;
1829;SDS011;914;48.118;11.600;2022-11-18T04:34:11;1.00;;;0.50;;
1829;SDS011;914;48.118;11.600;2022-11-18T04:36:36;0.73;;;0.73;;
1829;SDS011;914;48.118;11.600;2022-11-18T04:39:02;0.50;;;0.50;;
1829;SDS011;914;48.118;11.600;2022-11-18T04:41:28;0.67;;;0.50;;
1829;SDS011;914;48.118;11.600;2022-11-18T04:44:12;0.50;;;0.50;;
1829;SDS011;914;48.118;11.600;2022-11-18T04:46:38;1.70;;;0.57;;
1829;SDS011;914;48.118;11.600;2022-11-18T04:49:06;1.27;;;0.70;;
1829;SDS011;914;48.118;11.600;2022-11-18T04:51:35;1.13;;;0.60;;
1829;SDS011;914;48.118;11.600;2022-11-18T04:54:01;0.50;;;0.50;;
1829;SDS011;914;48.118;11.600;2022-11-18T04:56:27;1.00;;;0.40;;
1829;SDS011;914;48.118;11.600;2022-11-18T04:58:53;0.70;;;0.40;;
1829;SDS011;914;48.118;11.600;2022-11-18T05:01:19;0.97;;;0.43;;
1829;SDS011;914;48.118;11.600;2022-11-18T05:03:45;0.80;;;0.50;;
1829;SDS011;914;48.118;11.600;2022-11-18T05:06:11;0.87;;;0.63;;
1829;SDS011;914;48.118;11.600;2022-11-18T05:08:36;0.53;;;0.53;;
1829;SDS011;914;48.118;11.600;2022-11-18T05:11:06;0.67;;;0.50;;
1829;SDS011;914;48.118;11.600;2022-11-18T05:13:50;0.73;;;0.70;;
1829;SDS011;914;48.118;11.600;2022-11-18T05:16:16;0.40;;;0.40;;
1829;SDS011;914;48.118;11.600;2022-11-18T05:18:42;1.03;;;0.57;;
1829;SDS011;914;48.118;11.600;2022-11-18T05:21:08;1.60;;;0.60;;
1829;SDS011;914;48.118;11.600;2022-11-18T05:23:34;0.63;;;0.40;;
1829;SDS011;914;48.118;11.600;2022-11-18T05:26:03;0.50;;;0.50;;
1829;SDS011;914;48.118;11.600;2022-11-18T05:28:32;0.40;;;0.40;;
1829;SDS011;914;48.118;11.600;2022-11-18T05:30:58;0.50;;;0.50;;
1829;SDS011;914;48.118;11.600;2022-11-18T05:33:24;0.47;;;0.47;;
1829;SDS011;914;48.118;11.600;2022-11-18T05:35:50;0.50;;;0.43;;
1829;SDS011;914;48.118;11.600;2022-11-18T05:38:15;0.60;;;0.60;;
1829;SDS011;914;48.118;11.600;2022-11-18T05:40:41;0.50;;;0.50;;
1829;SDS011;914;48.118;11.600;2022-11-18T05:43:10;0.47;;;0.47;;
1829;SDS011;914;48.118;11.600;2022-11-18T05:45:36;0.30;;;0.30;;
1829;SDS011;914;48.118;11.600;2022-11-18T05:48:03;0.50;;;0.40;;
1829;SDS011;914;48.118;11.600;2022-11-18T05:50:30;0.90;;;0.30;;
1829;SDS011;914;48.118;11.600;2022-11-18T05:52:58;0.40;;;0.40;;
1829;SDS011;914;48.118;11.600;2022-11-18T05:55:24;1.53;;;0.40;;
1829;SDS011;914;48.118;11.600;2022-11-18T05:57:53;0.30;;;0.30;;
1829;SDS011;914;48.118;11.600;2022-11-18T06:00:19;0.40;;;0.40;;
1829;SDS011;914;48.118;11.600;2022-11-18T06:02:45;0.33;;;0.33;;
1829;SDS011;914;48.118;11.600;2022-11-18T06:05:12;0.40;;;0.40;;
1829;SDS011;914;48.118;11.600;2022-11-18T06:07:42;0.30;;;0.30;;
1829;SDS011;914;48.118;11.600;2022-11-18T06:10:42;0.37;;;0.37;;
1829;SDS011;914;48.118;11.600;2022-11-18T06:13:05;0.30;;;0.30;;
1829;SDS011;914;48.118;11.600;2022-11-18T06:15:34;0.50;;;0.50;;
1829;SDS011;914;48.118;11.600;2022-11-18T06:18:08;1.93;;;0.47;;
1829;SDS011;914;48.118;11.600;2022-11-18T06:20:40;0.40;;;0.40;;
1829;SDS011;914;48.118;11.600;2022-11-18T06:23:06;0.30;;;0.30;;
1829;SDS011;914;48.118;11.600;2022-11-18T06:25:32;0.50;;;0.50;;
1829;SDS011;914;48.118;11.600;2022-11-18T06:28:00;0.73;;;0.47;;
1829;SDS011;914;48.118;11.600;2022-11-18T06:30:26;0.40;;;0.40;;
1829;SDS011;914;48.118;11.600;2022-11-18T06:32:52;0.63;;;0.57;;
1829;SDS011;914;48.118;11.600;2022-11-18T06:35:18;0.30;;;0.30;;
1829;SDS011;914;48.118;11.600;2022-11-18T06:37:43;1.63;;;0.43;;
1829;SDS011;914;48.118;11.600;2022-11-18T06:40:11;0.40;;;0.40;;
1829;SDS011;914;48.118;11.600;2022-11-18T06:42:37;0.30;;;0.30;;
1829;SDS011;914;48.118;11.600;2022-11-18T06:45:21;0.40;;;0.40;;
1829;SDS011;914;48.118;11.600;2022-11-18T06:47:50;1.03;;;0.60;;
1829;SDS011;914;48.118;11.600;2022-11-18T06:50:15;2.57;;;0.57;;
1829;SDS011;914;48.118;11.600;2022-11-18T06:52:41;3.87;;;0.70;;
1829;SDS011;914;48.118;11.600;2022-11-18T06:55:07;0.67;;;0.40;;
1829;SDS011;914;48.118;11.600;2022-11-18T06:57:33;0.33;;;0.33;;
1829;SDS011;914;48.118;11.600;2022-11-18T07:00:02;6.10;;;0.60;;
1829;SDS011;914;48.118;11.600;2022-11-18T07:02:28;0.40;;;0.40;;
1829;SDS011;914;48.118;11.600;2022-11-18T07:04:54;1.60;;;0.87;;
1829;SDS011;914;48.118;11.600;2022-11-18T07:07:20;0.40;;;0.40;;
1829;SDS011;914;48.118;11.600;2022-11-18T07:09:45;0.70;;;0.60;;
1829;SDS011;914;48.118;11.600;2022-11-18T07:12:11;0.40;;;0.40;;
1829;SDS011;914;48.118;11.600;2022-11-18T07:14:36;0.47;;;0.47;;
1829;SDS011;914;48.118;11.600;2022-11-18T07:17:02;1.07;;;0.60;;
1829;SDS011;914;48.118;11.600;2022-11-18T07:19:28;1.93;;;0.60;;
1829;SDS011;914;48.118;11.600;2022-11-18T07:21:53;1.43;;;0.70;;
1829;SDS011;914;48.118;11.600;2022-11-18T07:24:19;0.97;;;0.70;;
1829;SDS011;914;48.118;11.600;2022-11-18T07:26:45;0.60;;;0.50;;
1829;SDS011;914;48.118;11.600;2022-11-18T07:29:11;3.23;;;0.90;;
1829;SDS011;914;48.118;11.600;2022-11-18T07:31:36;1.23;;;0.70;;
1829;SDS011;914;48.118;11.600;2022-11-18T07:34:03;3.87;;;0.97;;
1829;SDS011;914;48.118;11.600;2022-11-18T07:36:29;5.13;;;0.80;;
1829;SDS011;914;48.118;11.600;2022-11-18T07:38:59;2.47;;;0.77;;
1829;SDS011;914;48.118;11.600;2022-11-18T07:41:27;0.80;;;0.80;;
1829;SDS011;914;48.118;11.600;2022-11-18T07:43:54;4.73;;;1.00;;
1829;SDS011;914;48.118;11.600;2022-11-18T07:48:48;0.60;;;0.60;;
1829;SDS011;914;48.118;11.600;2022-11-18T07:51:15;0.87;;;0.87;;
1829;SDS011;914;48.118;11.600;2022-11-18T07:53:42;0.77;;;0.70;;
1829;SDS011;914;48.118;11.600;2022-11-18T07:56:09;0.83;;;0.80;;
1829;SDS011;914;48.118;11.600;2022-11-18T07:58:35;0.60;;;0.60;;
1829;SDS011;914;48.118;11.600;2022-11-18T08:03:33;0.57;;;0.57;;
1829;SDS011;914;48.118;11.600;2022-11-18T08:06:00;1.30;;;0.80;;
1829;SDS011;914;48.118;11.600;2022-11-18T08:08:26;1.73;;;0.80;;
1829;SDS011;914;48.118;11.600;2022-11-18T08:10:56;1.60;;;0.90;;
1829;SDS011;914;48.118;11.600;2022-11-18T08:13:23;3.90;;;1.03;;
1829;SDS011;914;48.118;11.600;2022-11-18T08:15:49;1.20;;;0.60;;
1829;SDS011;914;48.118;11.600;2022-11-18T08:18:15;0.50;;;0.50;;
1829;SDS011;914;48.118;11.600;2022-11-18T08:20:41;0.60;;;0.60;;
1829;SDS011;914;48.118;11.600;2022-11-18T08:23:09;1.70;;;0.97;;
1829;SDS011;914;48.118;11.600;2022-11-18T08:25:35;1.80;;;0.80;;
1829;SDS011;914;48.118;11.600;2022-11-18T08:28:00;1.37;;;0.80;;
1829;SDS011;914;48.118;11.600;2022-11-18T08:30:26;0.60;;;0.60;;
1829;SDS011;914;48.118;11.600;2022-11-18T08:32:52;1.53;;;0.90;;
1829;SDS011;914;48.118;11.600;2022-11-18T08:35:17;0.87;;;0.80;;
1829;SDS011;914;48.118;11.600;2022-11-18T08:37:43;0.73;;;0.60;;
1829;SDS011;914;48.118;11.600;2022-11-18T08:40:09;2.37;;;1.37;;
1829;SDS011;914;48.118;11.600;2022-11-18T08:42:34;0.73;;;0.73;;
1829;SDS011;914;48.118;11.600;2022-11-18T08:45:02;1.33;;;0.60;;
1829;SDS011;914;48.118;11.600;2022-11-18T08:47:29;0.80;;;0.80;;
1829;SDS011;914;48.118;11.600;2022-11-18T08:49:55;1.10;;;0.70;;
1829;SDS011;914;48.118;11.600;2022-11-18T08:52:20;0.60;;;0.60;;
1829;SDS011;914;48.118;11.600;2022-11-18T08:54:46;1.43;;;0.87;;
1829;SDS011;914;48.118;11.600;2022-11-18T08:57:11;0.90;;;0.70;;
1829;SDS011;914;48.118;11.600;2022-11-18T08:59:37;0.50;;;0.50;;
1829;SDS011;914;48.118;11.600;2022-11-18T09:02:03;0.70;;;0.70;;
1829;SDS011;914;48.118;11.600;2022-11-18T09:04:28;0.93;;;0.77;;
1829;SDS011;914;48.118;11.600;2022-11-18T09:06:54;2.30;;;0.70;;
1829;SDS011;914;48.118;11.600;2022-11-18T09:09:20;2.77;;;0.93;;
1829;SDS011;914;48.118;11.600;2022-11-18T09:11:46;0.83;;;0.83;;
1829;SDS011;914;48.118;11.600;2022-11-18T09:14:12;1.63;;;0.80;;
1829;SDS011;914;48.118;11.600;2022-11-18T09:16:38;0.93;;;0.93;;
1829;SDS011;914;48.118;11.600;2022-11-18T09:19:03;1.03;;;0.90;;
1829;SDS011;914;48.118;11.600;2022-11-18T09:21:29;1.83;;;1.00;;
1829;SDS011;914;48.118;11.600;2022-11-18T09:23:55;0.80;;;0.80;;
1829;SDS011;914;48.118;11.600;2022-11-18T09:26:21;1.23;;;0.90;;
1829;SDS011;914;48.118;11.600;2022-11-18T09:28:48;0.70;;;0.60;;
1829;SDS011;914;48.118;11.600;2022-11-18T09:31:16;0.90;;;0.90;;
1829;SDS011;914;48.118;11.600;2022-11-18T09:33:43;0.90;;;0.90;;
1829;SDS011;914;48.118;11.600;2022-11-18T09:36:16;1.10;;;1.00;;
1829;SDS011;914;48.118;11.600;2022-11-18T09:38:47;0.90;;;0.90;;
1829;SDS011;914;48.118;11.600;2022-11-18T09:44:08;0.90;;;0.90;;
1829;SDS011;914;48.118;11.600;2022-11-18T09:47:16;1.07;;;1.00;;
1829;SDS011;914;48.118;11.600;2022-11-18T09:49:50;1.70;;;1.40;;
1829;SDS011;914;48.118;11.600;2022-11-18T09:52:18;3.47;;;0.90;;
1829;SDS011;914;48.118;11.600;2022-11-18T09:54:48;1.57;;;0.83;;
1829;SDS011;914;48.118;11.600;2022-11-18T10:00:21;0.80;;;0.80;;
1829;SDS011;914;48.118;11.600;2022-11-18T10:08:20;0.60;;;0.60;;
1829;SDS011;914;48.118;11.600;2022-11-18T10:10:58;2.67;;;2.17;;
1829;SDS011;914;48.118;11.600;2022-11-18T10:16:18;0.53;;;0.53;;
1829;SDS011;914;48.118;11.600;2022-11-18T10:18:47;1.53;;;0.80;;
1829;SDS011;914;48.118;11.600;2022-11-18T10:21:26;1.13;;;0.60;;
1829;SDS011;914;48.118;11.600;2022-11-18T10:24:04;0.87;;;0.70;;
1829;SDS011;914;48.118;11.600;2022-11-18T10:26:38;2.00;;;0.60;;
1829;SDS011;914;48.118;11.600;2022-11-18T10:29:06;0.90;;;0.80;;
1829;SDS011;914;48.118;11.600;2022-11-18T10:34:25;0.50;;;0.50;;
1829;SDS011;914;48.118;11.600;2022-11-18T10:37:02;1.60;;;0.70;;
1829;SDS011;914;48.118;11.600;2022-11-18T10:39:29;0.40;;;0.40;;
1829;SDS011;914;48.118;11.600;2022-11-18T10:41:57;0.60;;;0.60;;
1829;SDS011;914;48.118;11.600;2022-11-18T10:44:36;0.50;;;0.50;;
1829;SDS011;914;48.118;11.600;2022-11-18T10:49:58;1.67;;;0.80;;
1829;SDS011;914;48.118;11.600;2022-11-18T10:52:26;1.33;;;0.53;;
1829;SDS011;914;48.118;11.600;2022-11-18T10:55:08;0.80;;;0.80;;
1829;SDS011;914;48.118;11.600;2022-11-18T10:57:43;1.57;;;0.90;;
1829;SDS011;914;48.118;11.600;2022-11-18T11:00:52;0.63;;;0.63;;
1829;SDS011;914;48.118;11.600;2022-11-18T11:03:02;0.90;;;0.80;;
1829;SDS011;914;48.118;11.600;2022-11-18T11:05:40;2.67;;;0.77;;
1829;SDS011;914;48.118;11.600;2022-11-18T11:08:17;0.90;;;0.80;;
1829;SDS011;914;48.118;11.600;2022-11-18T11:10:52;0.90;;;0.90;;
1829;SDS011;914;48.118;11.600;2022-11-18T11:13:20;2.13;;;0.80;;
1829;SDS011;914;48.118;11.600;2022-11-18T11:15:49;0.80;;;0.80;;
1829;SDS011;914;48.118;11.600;2022-11-18T11:18:20;1.27;;;0.80;;
1829;SDS011;914;48.118;11.600;2022-11-18T11:23:40;1.00;;;0.90;;
1829;SDS011;914;48.118;11.600;2022-11-18T11:26:08;2.70;;;1.10;;
1829;SDS011;914;48.118;11.600;2022-11-18T11:29:10;0.90;;;0.90;;
1829;SDS011;914;48.118;11.600;2022-11-18T11:32:14;1.93;;;1.20;;
1829;SDS011;914;48.118;11.600;2022-11-18T11:35:03;1.23;;;1.00;;
1829;SDS011;914;48.118;11.600;2022-11-18T11:37:45;3.30;;;1.20;;
1829;SDS011;914;48.118;11.600;2022-11-18T11:40:34;1.27;;;1.17;;
1829;SDS011;914;48.118;11.600;2022-11-18T11:53:49;1.00;;;0.90;;
1829;SDS011;914;48.118;11.600;2022-11-18T11:56:49;1.30;;;1.00;;
1829;SDS011;914;48.118;11.600;2022-11-18T12:02:32;1.33;;;1.20;;
1829;SDS011;914;48.118;11.600;2022-11-18T12:07:54;2.73;;;1.10;;
1829;SDS011;914;48.118;11.600;2022-11-18T12:10:56;1.73;;;1.20;;
1829;SDS011;914;48.118;11.600;2022-11-18T12:16:47;1.57;;;1.00;;
1829;SDS011;914;48.118;11.600;2022-11-18T12:19:19;1.30;;;1.00;;
1829;SDS011;914;48.118;11.600;2022-11-18T12:21:50;1.17;;;1.07;;
1829;SDS011;914;48.118;11.600;2022-11-18T12:32:31;0.67;;;0.67;;
1829;SDS011;914;48.118;11.600;2022-11-18T12:37:37;0.60;;;0.60;;
1829;SDS011;914;48.118;11.600;2022-11-18T12:40:06;1.23;;;1.00;;
1829;SDS011;914;48.118;11.600;2022-11-18T12:42:35;0.80;;;0.80;;
1829;SDS011;914;48.118;11.600;2022-11-18T12:51:00;0.97;;;0.83;;
1829;SDS011;914;48.118;11.600;2022-11-18T12:53:35;1.43;;;0.80;;
1829;SDS011;914;48.118;11.600;2022-11-18T12:56:28;0.60;;;0.60;;
1829;SDS011;914;48.118;11.600;2022-11-18T12:59:00;1.70;;;1.10;;
1829;SDS011;914;48.118;11.600;2022-11-18T13:01:30;0.80;;;0.80;;
1829;SDS011;914;48.118;11.600;2022-11-18T13:04:16;1.00;;;0.70;;
1829;SDS011;914;48.118;11.600;2022-11-18T13:06:44;2.30;;;0.80;;
1829;SDS011;914;48.118;11.600;2022-11-18T13:09:17;0.73;;;0.73;;
1829;SDS011;914;48.118;11.600;2022-11-18T13:11:49;3.13;;;0.90;;
1829;SDS011;914;48.118;11.600;2022-11-18T13:14:27;1.10;;;0.80;;
1829;SDS011;914;48.118;11.600;2022-11-18T13:17:30;0.70;;;0.70;;
1829;SDS011;914;48.118;11.600;2022-11-18T13:20:29;1.80;;;0.80;;
1829;SDS011;914;48.118;11.600;2022-11-18T13:25:53;0.73;;;0.73;;
1829;SDS011;914;48.118;11.600;2022-11-18T13:34:48;1.43;;;0.90;;
1829;SDS011;914;48.118;11.600;2022-11-18T13:37:27;0.70;;;0.70;;
1829;SDS011;914;48.118;11.600;2022-11-18T13:39:54;1.40;;;0.90;;
1829;SDS011;914;48.118;11.600;2022-11-18T13:42:21;1.77;;;0.90;;
1829;SDS011;914;48.118;11.600;2022-11-18T13:52:49;2.00;;;1.20;;
1829;SDS011;914;48.118;11.600;2022-11-18T13:55:19;0.87;;;0.87;;
1829;SDS011;914;48.118;11.600;2022-11-18T13:57:48;0.90;;;0.90;;
1829;SDS011;914;48.118;11.600;2022-11-18T14:00:24;0.97;;;0.97;;
1829;SDS011;914;48.118;11.600;2022-11-18T14:05:58;1.30;;;1.20;;
1829;SDS011;914;48.118;11.600;2022-11-18T14:08:28;1.27;;;1.17;;
1829;SDS011;914;48.118;11.600;2022-11-18T14:10:56;2.17;;;1.30;;
1829;SDS011;914;48.118;11.600;2022-11-18T14:15:50;1.40;;;1.30;;
1829;SDS011;914;48.118;11.600;2022-11-18T14:18:31;2.30;;;1.60;;
1829;SDS011;914;48.118;11.600;2022-11-18T14:20:59;2.03;;;1.70;;
1829;SDS011;914;48.118;11.600;2022-11-18T14:23:30;1.60;;;1.50;;
1829;SDS011;914;48.118;11.600;2022-11-18T14:25:58;2.13;;;1.70;;
1829;SDS011;914;48.118;11.600;2022-11-18T14:28:31;1.60;;;1.50;;
1829;SDS011;914;48.118;11.600;2022-11-18T14:30:59;2.17;;;1.67;;
1829;SDS011;914;48.118;11.600;2022-11-18T14:33:35;1.67;;;1.40;;
1829;SDS011;914;48.118;11.600;2022-11-18T14:36:35;2.07;;;1.90;;
1829;SDS011;914;48.118;11.600;2022-11-18T14:38:54;1.87;;;1.77;;
1829;SDS011;914;48.118;11.600;2022-11-18T14:41:20;2.27;;;1.77;;
1829;SDS011;914;48.118;11.600;2022-11-18T14:44:06;3.53;;;1.90;;
1829;SDS011;914;48.118;11.600;2022-11-18T14:46:32;2.07;;;1.97;;
1829;SDS011;914;48.118;11.600;2022-11-18T14:49:01;2.20;;;2.00;;
1829;SDS011;914;48.118;11.600;2022-11-18T14:51:28;2.20;;;2.00;;
1829;SDS011;914;48.118;11.600;2022-11-18T14:53:53;4.43;;;1.60;;
1829;SDS011;914;48.118;11.600;2022-11-18T14:56:21;2.77;;;1.80;;
1829;SDS011;914;48.118;11.600;2022-11-18T14:58:50;2.23;;;1.60;;
1829;SDS011;914;48.118;11.600;2022-11-18T15:01:16;1.67;;;1.57;;
1829;SDS011;914;48.118;11.600;2022-11-18T15:03:42;2.57;;;1.83;;
1829;SDS011;914;48.118;11.600;2022-11-18T15:06:12;2.47;;;2.27;;
1829;SDS011;914;48.118;11.600;2022-11-18T15:08:42;1.70;;;1.60;;
1829;SDS011;914;48.118;11.600;2022-11-18T15:11:10;2.00;;;1.80;;
1829;SDS011;914;48.118;11.600;2022-11-18T15:13:36;1.17;;;1.17;;
1829;SDS011;914;48.118;11.600;2022-11-18T15:16:13;1.20;;;1.13;;
1829;SDS011;914;48.118;11.600;2022-11-18T15:18:41;2.70;;;1.20;;
1829;SDS011;914;48.118;11.600;2022-11-18T15:21:08;1.30;;;1.20;;
1829;SDS011;914;48.118;11.600;2022-11-18T15:23:34;1.30;;;1.20;;
1829;SDS011;914;48.118;11.600;2022-11-18T15:26:00;0.90;;;0.90;;
1829;SDS011;914;48.118;11.600;2022-11-18T15:28:27;1.40;;;1.07;;
1829;SDS011;914;48.118;11.600;2022-11-18T15:30:53;1.37;;;1.27;;
1829;SDS011;914;48.118;11.600;2022-11-18T15:33:18;1.60;;;1.50;;
1829;SDS011;914;48.118;11.600;2022-11-18T15:35:44;2.20;;;1.40;;
1829;SDS011;914;48.118;11.600;2022-11-18T15:38:10;1.70;;;1.40;;
1829;SDS011;914;48.118;11.600;2022-11-18T15:40:36;1.00;;;1.00;;
1829;SDS011;914;48.118;11.600;2022-11-18T15:43:03;1.97;;;1.40;;
1829;SDS011;914;48.118;11.600;2022-11-18T15:45:29;1.30;;;1.20;;
1829;SDS011;914;48.118;11.600;2022-11-18T15:47:55;1.40;;;1.27;;
1829;SDS011;914;48.118;11.600;2022-11-18T15:50:20;1.83;;;1.73;;
1829;SDS011;914;48.118;11.600;2022-11-18T15:52:46;1.80;;;1.47;;
1829;SDS011;914;48.118;11.600;2022-11-18T15:55:12;1.70;;;1.40;;
1829;SDS011;914;48.118;11.600;2022-11-18T15:57:38;1.30;;;1.20;;
1829;SDS011;914;48.118;11.600;2022-11-18T16:00:03;2.03;;;1.40;;
1829;SDS011;914;48.118;11.600;2022-11-18T16:02:30;1.33;;;1.23;;
1829;SDS011;914;48.118;11.600;2022-11-18T16:04:55;1.23;;;1.17;;
1829;SDS011;914;48.118;11.600;2022-11-18T16:07:21;1.57;;;1.30;;
1829;SDS011;914;48.118;11.600;2022-11-18T16:09:47;3.83;;;1.77;;
1829;SDS011;914;48.118;11.600;2022-11-18T16:12:32;1.40;;;1.30;;
1829;SDS011;914;48.118;11.600;2022-11-18T16:15:13;1.90;;;1.30;;
1829;SDS011;914;48.118;11.600;2022-11-18T16:17:59;1.33;;;1.27;;
1829;SDS011;914;48.118;11.600;2022-11-18T16:20:25;1.67;;;1.37;;
1829;SDS011;914;48.118;11.600;2022-11-18T16:22:52;3.57;;;1.40;;
1829;SDS011;914;48.118;11.600;2022-11-18T16:25:19;2.43;;;1.57;;
1829;SDS011;914;48.118;11.600;2022-11-18T16:27:45;3.80;;;1.73;;
1829;SDS011;914;48.118;11.600;2022-11-18T16:30:11;7.93;;;5.80;;
1829;SDS011;914;48.118;11.600;2022-11-18T16:32:57;2.73;;;1.93;;
1829;SDS011;914;48.118;11.600;2022-11-18T16:35:23;1.53;;;1.43;;
1829;SDS011;914;48.118;11.600;2022-11-18T16:37:49;2.00;;;1.70;;
1829;SDS011;914;48.118;11.600;2022-11-18T16:40:15;3.30;;;2.00;;
1829;SDS011;914;48.118;11.600;2022-11-18T16:42:40;3.73;;;1.93;;
1829;SDS011;914;48.118;11.600;2022-11-18T16:45:06;2.90;;;1.83;;
1829;SDS011;914;48.118;11.600;2022-11-18T16:47:32;1.80;;;1.70;;
1829;SDS011;914;48.118;11.600;2022-11-18T16:49:58;1.90;;;1.80;;
1829;SDS011;914;48.118;11.600;2022-11-18T16:52:23;4.27;;;3.50;;
1829;SDS011;914;48.118;11.600;2022-11-18T16:54:49;1.93;;;1.73;;
1829;SDS011;914;48.118;11.600;2022-11-18T16:57:16;2.00;;;1.77;;
1829;SDS011;914;48.118;11.600;2022-11-18T16:59:42;2.23;;;2.00;;
1829;SDS011;914;48.118;11.600;2022-11-18T17:02:10;1.97;;;1.87;;
1829;SDS011;914;48.118;11.600;2022-11-18T17:04:37;2.93;;;1.97;;
1829;SDS011;914;48.118;11.600;2022-11-18T17:07:03;2.03;;;1.80;;
1829;SDS011;914;48.118;11.600;2022-11-18T17:09:29;3.77;;;1.80;;
1829;SDS011;914;48.118;11.600;2022-11-18T17:11:55;2.13;;;1.83;;
1829;SDS011;914;48.118;11.600;2022-11-18T17:14:22;3.00;;;2.00;;
1829;SDS011;914;48.118;11.600;2022-11-18T17:16:49;2.30;;;2.10;;
1829;SDS011;914;48.118;11.600;2022-11-18T17:19:17;2.77;;;2.50;;
1829;SDS011;914;48.118;11.600;2022-11-18T17:21:44;3.53;;;2.40;;
1829;SDS011;914;48.118;11.600;2022-11-18T17:24:11;2.93;;;2.20;;
1829;SDS011;914;48.118;11.600;2022-11-18T17:26:38;2.50;;;2.30;;
1829;SDS011;914;48.118;11.600;2022-11-18T17:29:04;2.37;;;2.17;;